sensor_id;sensor_type;location;lat;lon;timestamp;P1;durP1;ratioP1;P2;durP2;ratioP2
25073;SDS011;13066;52.042;5.648;2022-11-27T12:22:18;15.65;;;6.93;;
25073;SDS011;13066;52.042;5.648;2022-11-27T12:25:33;12.20;;;6.65;;
25073;SDS011;13066;52.042;5.648;2022-11-27T12:28:07;16.35;;;7.32;;
25073;SDS011;13066;52.042;5.648;2022-11-27T12:30:47;17.25;;;8.13;;
25073;SDS011;13066;52.042;5.648;2022-11-27T12:33:27;16.65;;;6.75;;
25073;SDS011;13066;52.042;5.648;2022-11-27T12:36:06;11.73;;;7.05;;
25073;SDS011;13066;52.042;5.648;2022-11-27T12:38:47;15.73;;;7.15;;
25073;SDS011;13066;52.042;5.648;2022-11-27T12:41:30;14.45;;;7.28;;
25073;SDS011;13066;52.042;5.648;2022-11-27T12:44:11;14.20;;;7.40;;
25073;SDS011;13066;52.042;5.648;2022-11-27T12:46:49;18.23;;;6.72;;
25073;SDS011;13066;52.042;5.648;2022-11-27T12:49:24;15.13;;;6.90;;
25073;SDS011;13066;52.042;5.648;2022-11-27T12:52:01;13.15;;;7.13;;
25073;SDS011;13066;52.042;5.648;2022-11-27T12:54:35;12.45;;;6.80;;
25073;SDS011;13066;52.042;5.648;2022-11-27T12:57:14;14.35;;;6.40;;
25073;SDS011;13066;52.042;5.648;2022-11-27T13:02:23;14.70;;;6.57;;
25073;SDS011;13066;52.042;5.648;2022-11-27T13:04:56;16.30;;;7.38;;
25073;SDS011;13066;52.042;5.648;2022-11-27T13:07:27;15.88;;;6.22;;
25073;SDS011;13066;52.042;5.648;2022-11-27T13:10:04;13.55;;;5.85;;
25073;SDS011;13066;52.042;5.648;2022-11-27T13:12:42;13.77;;;7.05;;
25073;SDS011;13066;52.042;5.648;2022-11-27T13:17:45;10.23;;;5.53;;
25073;SDS011;13066;52.042;5.648;2022-11-27T13:20:23;19.42;;;6.28;;
25073;SDS011;13066;52.042;5.648;2022-11-27T13:22:59;12.70;;;6.50;;
25073;SDS011;13066;52.042;5.648;2022-11-27T13:25:27;12.07;;;6.57;;
25073;SDS011;13066;52.042;5.648;2022-11-27T13:27:58;12.00;;;6.65;;
25073;SDS011;13066;52.042;5.648;2022-11-27T13:30:31;10.70;;;6.28;;
25073;SDS011;13066;52.042;5.648;2022-11-27T13:33:01;13.50;;;7.68;;
25073;SDS011;13066;52.042;5.648;2022-11-27T13:35:35;15.63;;;7.63;;
25073;SDS011;13066;52.042;5.648;2022-11-27T13:38:07;20.67;;;8.73;;
25073;SDS011;13066;52.042;5.648;2022-11-27T13:40:39;17.33;;;8.15;;
25073;SDS011;13066;52.042;5.648;2022-11-27T13:43:18;11.52;;;7.10;;
25073;SDS011;13066;52.042;5.648;2022-11-27T13:45:49;12.68;;;6.95;;
25073;SDS011;13066;52.042;5.648;2022-11-27T13:48:21;13.50;;;6.93;;
25073;SDS011;13066;52.042;5.648;2022-11-27T13:50:56;14.02;;;6.38;;
25073;SDS011;13066;52.042;5.648;2022-11-27T13:53:34;9.23;;;5.60;;
25073;SDS011;13066;52.042;5.648;2022-11-27T13:56:04;13.70;;;5.78;;
25073;SDS011;13066;52.042;5.648;2022-11-27T13:58:35;12.35;;;5.85;;
25073;SDS011;13066;52.042;5.648;2022-11-27T14:01:11;12.52;;;6.80;;
25073;SDS011;13066;52.042;5.648;2022-11-27T14:03:41;12.98;;;7.10;;
25073;SDS011;13066;52.042;5.648;2022-11-27T14:06:14;20.17;;;8.55;;
25073;SDS011;13066;52.042;5.648;2022-11-27T14:08:48;17.00;;;7.05;;
25073;SDS011;13066;52.042;5.648;2022-11-27T14:11:27;13.35;;;7.60;;
25073;SDS011;13066;52.042;5.648;2022-11-27T14:13:59;16.13;;;7.22;;
25073;SDS011;13066;52.042;5.648;2022-11-27T14:16:29;14.52;;;7.00;;
25073;SDS011;13066;52.042;5.648;2022-11-27T14:18:59;18.88;;;7.38;;
25073;SDS011;13066;52.042;5.648;2022-11-27T14:21:33;13.40;;;7.45;;
25073;SDS011;13066;52.042;5.648;2022-11-27T14:24:25;15.27;;;8.07;;
25073;SDS011;13066;52.042;5.648;2022-11-27T14:27:05;17.30;;;8.77;;
25073;SDS011;13066;52.042;5.648;2022-11-27T14:29:42;19.13;;;8.60;;
25073;SDS011;13066;52.042;5.648;2022-11-27T14:32:12;15.70;;;7.50;;
25073;SDS011;13066;52.042;5.648;2022-11-27T14:34:40;14.52;;;6.95;;
25073;SDS011;13066;52.042;5.648;2022-11-27T14:37:18;18.00;;;7.10;;
25073;SDS011;13066;52.042;5.648;2022-11-27T14:39:48;14.00;;;7.65;;
25073;SDS011;13066;52.042;5.648;2022-11-27T14:42:41;12.70;;;7.72;;
25073;SDS011;13066;52.042;5.648;2022-11-27T14:45:11;15.77;;;8.30;;
25073;SDS011;13066;52.042;5.648;2022-11-27T14:47:47;15.02;;;7.53;;
25073;SDS011;13066;52.042;5.648;2022-11-27T14:50:16;15.50;;;7.40;;
25073;SDS011;13066;52.042;5.648;2022-11-27T14:52:51;16.63;;;8.90;;
25073;SDS011;13066;52.042;5.648;2022-11-27T14:55:21;12.43;;;6.63;;
25073;SDS011;13066;52.042;5.648;2022-11-27T14:57:56;11.30;;;5.95;;
25073;SDS011;13066;52.042;5.648;2022-11-27T15:00:26;13.43;;;5.68;;
25073;SDS011;13066;52.042;5.648;2022-11-27T15:02:54;9.40;;;5.18;;
25073;SDS011;13066;52.042;5.648;2022-11-27T15:05:33;13.93;;;6.22;;
25073;SDS011;13066;52.042;5.648;2022-11-27T15:08:06;12.10;;;6.63;;
25073;SDS011;13066;52.042;5.648;2022-11-27T15:10:37;14.32;;;6.22;;
25073;SDS011;13066;52.042;5.648;2022-11-27T15:13:15;15.25;;;5.88;;
25073;SDS011;13066;52.042;5.648;2022-11-27T15:15:53;10.93;;;5.53;;
25073;SDS011;13066;52.042;5.648;2022-11-27T15:18:24;15.50;;;6.80;;
25073;SDS011;13066;52.042;5.648;2022-11-27T15:20:54;11.95;;;6.22;;
25073;SDS011;13066;52.042;5.648;2022-11-27T15:23:24;16.40;;;7.05;;
25073;SDS011;13066;52.042;5.648;2022-11-27T15:28:49;13.57;;;6.47;;
25073;SDS011;13066;52.042;5.648;2022-11-27T15:31:24;15.13;;;6.68;;
25073;SDS011;13066;52.042;5.648;2022-11-27T15:33:55;12.27;;;5.47;;
25073;SDS011;13066;52.042;5.648;2022-11-27T15:36:24;12.32;;;6.65;;
25073;SDS011;13066;52.042;5.648;2022-11-27T15:39:02;15.55;;;6.72;;
25073;SDS011;13066;52.042;5.648;2022-11-27T15:41:48;16.60;;;6.88;;
25073;SDS011;13066;52.042;5.648;2022-11-27T15:44:17;16.95;;;7.07;;
25073;SDS011;13066;52.042;5.648;2022-11-27T15:46:47;11.57;;;6.68;;
25073;SDS011;13066;52.042;5.648;2022-11-27T15:49:16;13.00;;;5.80;;
25073;SDS011;13066;52.042;5.648;2022-11-27T15:51:44;13.18;;;6.50;;
25073;SDS011;13066;52.042;5.648;2022-11-27T15:54:13;15.57;;;7.30;;
25073;SDS011;13066;52.042;5.648;2022-11-27T15:56:41;13.45;;;7.57;;
25073;SDS011;13066;52.042;5.648;2022-11-27T15:59:09;19.02;;;7.88;;
25073;SDS011;13066;52.042;5.648;2022-11-27T16:01:37;15.00;;;8.35;;
25073;SDS011;13066;52.042;5.648;2022-11-27T16:04:06;15.25;;;7.80;;
25073;SDS011;13066;52.042;5.648;2022-11-27T16:06:35;10.77;;;6.78;;
25073;SDS011;13066;52.042;5.648;2022-11-27T16:09:03;16.52;;;7.47;;
25073;SDS011;13066;52.042;5.648;2022-11-27T16:11:31;12.13;;;6.10;;
25073;SDS011;13066;52.042;5.648;2022-11-27T16:13:59;8.90;;;5.38;;
25073;SDS011;13066;52.042;5.648;2022-11-27T16:16:27;11.30;;;5.38;;
25073;SDS011;13066;52.042;5.648;2022-11-27T16:18:56;15.95;;;6.80;;
25073;SDS011;13066;52.042;5.648;2022-11-27T16:21:27;15.20;;;7.15;;
25073;SDS011;13066;52.042;5.648;2022-11-27T16:23:56;11.02;;;5.93;;
25073;SDS011;13066;52.042;5.648;2022-11-27T16:26:26;10.65;;;5.25;;
25073;SDS011;13066;52.042;5.648;2022-11-27T16:28:55;10.73;;;5.50;;
25073;SDS011;13066;52.042;5.648;2022-11-27T16:31:23;12.80;;;5.40;;
25073;SDS011;13066;52.042;5.648;2022-11-27T16:33:52;9.00;;;5.32;;
25073;SDS011;13066;52.042;5.648;2022-11-27T16:36:21;13.32;;;6.20;;
25073;SDS011;13066;52.042;5.648;2022-11-27T16:38:51;11.32;;;5.78;;
25073;SDS011;13066;52.042;5.648;2022-11-27T16:41:20;13.15;;;5.53;;
25073;SDS011;13066;52.042;5.648;2022-11-27T16:43:49;11.20;;;5.30;;
25073;SDS011;13066;52.042;5.648;2022-11-27T16:46:19;10.65;;;5.20;;
25073;SDS011;13066;52.042;5.648;2022-11-27T16:48:48;11.77;;;5.93;;
25073;SDS011;13066;52.042;5.648;2022-11-27T16:51:17;10.07;;;5.70;;
25073;SDS011;13066;52.042;5.648;2022-11-27T16:53:47;11.68;;;5.85;;
25073;SDS011;13066;52.042;5.648;2022-11-27T16:56:19;12.70;;;6.68;;
25073;SDS011;13066;52.042;5.648;2022-11-27T16:58:49;12.25;;;6.13;;
25073;SDS011;13066;52.042;5.648;2022-11-27T17:01:22;14.27;;;6.85;;
25073;SDS011;13066;52.042;5.648;2022-11-27T17:03:51;14.52;;;7.85;;
25073;SDS011;13066;52.042;5.648;2022-11-27T17:06:20;16.33;;;7.80;;
25073;SDS011;13066;52.042;5.648;2022-11-27T17:08:51;16.55;;;7.07;;
25073;SDS011;13066;52.042;5.648;2022-11-27T17:11:21;13.43;;;6.28;;
25073;SDS011;13066;52.042;5.648;2022-11-27T17:13:51;13.10;;;6.53;;
25073;SDS011;13066;52.042;5.648;2022-11-27T17:16:22;11.98;;;6.50;;
25073;SDS011;13066;52.042;5.648;2022-11-27T17:18:50;11.90;;;6.05;;
25073;SDS011;13066;52.042;5.648;2022-11-27T17:21:19;12.10;;;6.72;;
25073;SDS011;13066;52.042;5.648;2022-11-27T17:23:49;12.50;;;6.85;;
25073;SDS011;13066;52.042;5.648;2022-11-27T17:26:18;12.75;;;6.55;;
25073;SDS011;13066;52.042;5.648;2022-11-27T17:28:49;12.45;;;6.63;;
25073;SDS011;13066;52.042;5.648;2022-11-27T17:31:21;11.55;;;6.57;;
25073;SDS011;13066;52.042;5.648;2022-11-27T17:33:51;14.35;;;6.20;;
25073;SDS011;13066;52.042;5.648;2022-11-27T17:36:22;10.57;;;5.88;;
25073;SDS011;13066;52.042;5.648;2022-11-27T17:38:50;8.65;;;5.75;;
25073;SDS011;13066;52.042;5.648;2022-11-27T17:41:19;12.98;;;5.65;;
25073;SDS011;13066;52.042;5.648;2022-11-27T17:43:49;10.98;;;5.72;;
25073;SDS011;13066;52.042;5.648;2022-11-27T17:46:17;9.88;;;5.38;;
25073;SDS011;13066;52.042;5.648;2022-11-27T17:48:46;9.82;;;5.43;;
25073;SDS011;13066;52.042;5.648;2022-11-27T17:51:16;13.77;;;5.70;;
25073;SDS011;13066;52.042;5.648;2022-11-27T17:53:45;11.05;;;5.93;;
25073;SDS011;13066;52.042;5.648;2022-11-27T17:56:15;14.82;;;6.18;;
25073;SDS011;13066;52.042;5.648;2022-11-27T17:58:46;9.82;;;5.78;;
25073;SDS011;13066;52.042;5.648;2022-11-27T18:01:14;11.95;;;5.63;;
25073;SDS011;13066;52.042;5.648;2022-11-27T18:03:44;11.30;;;5.28;;
25073;SDS011;13066;52.042;5.648;2022-11-27T18:06:12;11.90;;;6.18;;
25073;SDS011;13066;52.042;5.648;2022-11-27T18:08:42;12.38;;;6.00;;
25073;SDS011;13066;52.042;5.648;2022-11-27T18:11:11;11.73;;;5.82;;
25073;SDS011;13066;52.042;5.648;2022-11-27T18:13:41;13.90;;;5.30;;
25073;SDS011;13066;52.042;5.648;2022-11-27T18:16:11;14.55;;;5.97;;
25073;SDS011;13066;52.042;5.648;2022-11-27T18:18:41;8.95;;;5.35;;
25073;SDS011;13066;52.042;5.648;2022-11-27T18:21:10;9.77;;;5.70;;
25073;SDS011;13066;52.042;5.648;2022-11-27T18:23:43;10.05;;;5.50;;
25073;SDS011;13066;52.042;5.648;2022-11-27T18:26:32;9.82;;;5.03;;
25073;SDS011;13066;52.042;5.648;2022-11-27T18:29:21;14.73;;;5.00;;
25073;SDS011;13066;52.042;5.648;2022-11-27T18:31:50;10.52;;;5.80;;
25073;SDS011;13066;52.042;5.648;2022-11-27T18:34:18;10.82;;;6.28;;
25073;SDS011;13066;52.042;5.648;2022-11-27T18:39:17;12.60;;;5.40;;
25073;SDS011;13066;52.042;5.648;2022-11-27T18:41:45;14.05;;;6.40;;
25073;SDS011;13066;52.042;5.648;2022-11-27T18:44:13;9.48;;;5.20;;
25073;SDS011;13066;52.042;5.648;2022-11-27T18:46:41;15.05;;;5.70;;
25073;SDS011;13066;52.042;5.648;2022-11-27T18:49:10;11.60;;;5.75;;
25073;SDS011;13066;52.042;5.648;2022-11-27T18:51:38;10.57;;;5.43;;
25073;SDS011;13066;52.042;5.648;2022-11-27T18:57:07;11.95;;;5.70;;
25073;SDS011;13066;52.042;5.648;2022-11-27T18:59:36;8.80;;;5.05;;
25073;SDS011;13066;52.042;5.648;2022-11-27T19:02:04;10.80;;;5.65;;
25073;SDS011;13066;52.042;5.648;2022-11-27T19:04:34;9.70;;;5.60;;
25073;SDS011;13066;52.042;5.648;2022-11-27T19:07:03;9.05;;;5.30;;
25073;SDS011;13066;52.042;5.648;2022-11-27T19:09:31;13.73;;;6.25;;
25073;SDS011;13066;52.042;5.648;2022-11-27T19:11:59;13.93;;;6.60;;
25073;SDS011;13066;52.042;5.648;2022-11-27T19:14:27;13.48;;;7.50;;
25073;SDS011;13066;52.042;5.648;2022-11-27T19:16:56;14.65;;;6.82;;
25073;SDS011;13066;52.042;5.648;2022-11-27T19:19:24;15.80;;;7.38;;
25073;SDS011;13066;52.042;5.648;2022-11-27T19:22:14;15.85;;;7.50;;
25073;SDS011;13066;52.042;5.648;2022-11-27T19:24:45;14.82;;;7.45;;
25073;SDS011;13066;52.042;5.648;2022-11-27T19:27:13;12.75;;;7.15;;
25073;SDS011;13066;52.042;5.648;2022-11-27T19:29:41;18.65;;;8.25;;
25073;SDS011;13066;52.042;5.648;2022-11-27T19:32:09;16.10;;;8.35;;
25073;SDS011;13066;52.042;5.648;2022-11-27T19:34:37;18.33;;;8.18;;
25073;SDS011;13066;52.042;5.648;2022-11-27T19:37:05;15.60;;;8.43;;
25073;SDS011;13066;52.042;5.648;2022-11-27T19:39:35;18.13;;;8.70;;
25073;SDS011;13066;52.042;5.648;2022-11-27T19:42:03;12.43;;;7.03;;
25073;SDS011;13066;52.042;5.648;2022-11-27T19:44:31;13.27;;;7.00;;
25073;SDS011;13066;52.042;5.648;2022-11-27T19:46:59;13.88;;;6.80;;
25073;SDS011;13066;52.042;5.648;2022-11-27T19:49:27;12.02;;;7.38;;
25073;SDS011;13066;52.042;5.648;2022-11-27T19:51:55;11.85;;;7.32;;
25073;SDS011;13066;52.042;5.648;2022-11-27T19:54:23;14.10;;;7.05;;
25073;SDS011;13066;52.042;5.648;2022-11-27T19:56:53;14.90;;;6.97;;
25073;SDS011;13066;52.042;5.648;2022-11-27T19:59:21;17.80;;;7.55;;
25073;SDS011;13066;52.042;5.648;2022-11-27T20:01:51;14.13;;;7.57;;
25073;SDS011;13066;52.042;5.648;2022-11-27T20:04:19;17.15;;;7.60;;
25073;SDS011;13066;52.042;5.648;2022-11-27T20:06:48;15.82;;;8.52;;
25073;SDS011;13066;52.042;5.648;2022-11-27T20:09:17;14.32;;;7.20;;
25073;SDS011;13066;52.042;5.648;2022-11-27T20:11:45;15.18;;;7.78;;
25073;SDS011;13066;52.042;5.648;2022-11-27T20:14:14;17.70;;;8.93;;
25073;SDS011;13066;52.042;5.648;2022-11-27T20:16:44;14.48;;;7.88;;
25073;SDS011;13066;52.042;5.648;2022-11-27T20:19:12;15.98;;;8.73;;
25073;SDS011;13066;52.042;5.648;2022-11-27T20:21:41;18.40;;;8.73;;
25073;SDS011;13066;52.042;5.648;2022-11-27T20:24:09;15.38;;;9.70;;
25073;SDS011;13066;52.042;5.648;2022-11-27T20:26:37;21.73;;;9.52;;
25073;SDS011;13066;52.042;5.648;2022-11-27T20:29:08;19.77;;;9.10;;
25073;SDS011;13066;52.042;5.648;2022-11-27T20:31:38;18.33;;;8.10;;
25073;SDS011;13066;52.042;5.648;2022-11-27T20:34:09;14.07;;;7.93;;
25073;SDS011;13066;52.042;5.648;2022-11-27T20:36:42;16.00;;;7.90;;
25073;SDS011;13066;52.042;5.648;2022-11-27T20:39:10;15.93;;;8.27;;
25073;SDS011;13066;52.042;5.648;2022-11-27T20:41:47;14.57;;;8.32;;
25073;SDS011;13066;52.042;5.648;2022-11-27T20:44:16;15.27;;;7.55;;
25073;SDS011;13066;52.042;5.648;2022-11-27T20:46:45;15.93;;;6.90;;
25073;SDS011;13066;52.042;5.648;2022-11-27T20:49:14;14.55;;;7.78;;
25073;SDS011;13066;52.042;5.648;2022-11-27T20:51:42;17.63;;;8.25;;
25073;SDS011;13066;52.042;5.648;2022-11-27T20:54:11;18.08;;;7.65;;
25073;SDS011;13066;52.042;5.648;2022-11-27T20:56:39;19.23;;;8.50;;
25073;SDS011;13066;52.042;5.648;2022-11-27T20:59:08;15.52;;;8.65;;
25073;SDS011;13066;52.042;5.648;2022-11-27T21:01:36;18.27;;;9.45;;
25073;SDS011;13066;52.042;5.648;2022-11-27T21:04:13;14.05;;;8.88;;
25073;SDS011;13066;52.042;5.648;2022-11-27T21:06:45;14.00;;;8.82;;
25073;SDS011;13066;52.042;5.648;2022-11-27T21:09:13;14.80;;;8.55;;
25073;SDS011;13066;52.042;5.648;2022-11-27T21:11:41;15.13;;;8.02;;
25073;SDS011;13066;52.042;5.648;2022-11-27T21:14:10;17.08;;;8.57;;
25073;SDS011;13066;52.042;5.648;2022-11-27T21:16:40;17.42;;;7.88;;
25073;SDS011;13066;52.042;5.648;2022-11-27T21:19:14;11.60;;;7.95;;
25073;SDS011;13066;52.042;5.648;2022-11-27T21:21:43;12.82;;;7.95;;
25073;SDS011;13066;52.042;5.648;2022-11-27T21:24:11;17.05;;;8.13;;
25073;SDS011;13066;52.042;5.648;2022-11-27T21:26:40;15.00;;;7.43;;
25073;SDS011;13066;52.042;5.648;2022-11-27T21:29:08;17.30;;;8.65;;
25073;SDS011;13066;52.042;5.648;2022-11-27T21:31:38;20.35;;;7.72;;
25073;SDS011;13066;52.042;5.648;2022-11-27T21:34:13;17.00;;;8.98;;
25073;SDS011;13066;52.042;5.648;2022-11-27T21:36:41;18.05;;;8.40;;
25073;SDS011;13066;52.042;5.648;2022-11-27T21:39:10;12.13;;;7.60;;
25073;SDS011;13066;52.042;5.648;2022-11-27T21:41:42;16.02;;;7.80;;
25073;SDS011;13066;52.042;5.648;2022-11-27T21:44:10;15.15;;;6.68;;
25073;SDS011;13066;52.042;5.648;2022-11-27T21:46:39;13.90;;;6.45;;
25073;SDS011;13066;52.042;5.648;2022-11-27T21:49:09;13.77;;;6.72;;
25073;SDS011;13066;52.042;5.648;2022-11-27T21:51:40;10.55;;;6.35;;
25073;SDS011;13066;52.042;5.648;2022-11-27T21:54:09;13.35;;;7.22;;
25073;SDS011;13066;52.042;5.648;2022-11-27T21:56:38;16.92;;;6.45;;
25073;SDS011;13066;52.042;5.648;2022-11-27T21:59:07;10.75;;;6.30;;
25073;SDS011;13066;52.042;5.648;2022-11-27T22:01:38;13.90;;;7.60;;
25073;SDS011;13066;52.042;5.648;2022-11-27T22:04:06;12.45;;;7.90;;
25073;SDS011;13066;52.042;5.648;2022-11-27T22:06:35;15.85;;;9.50;;
25073;SDS011;13066;52.042;5.648;2022-11-27T22:09:06;19.05;;;10.57;;
25073;SDS011;13066;52.042;5.648;2022-11-27T22:11:41;21.70;;;10.38;;
25073;SDS011;13066;52.042;5.648;2022-11-27T22:14:10;18.70;;;10.13;;
25073;SDS011;13066;52.042;5.648;2022-11-27T22:16:39;16.23;;;8.45;;
25073;SDS011;13066;52.042;5.648;2022-11-27T22:19:11;18.95;;;8.55;;
25073;SDS011;13066;52.042;5.648;2022-11-27T22:21:40;12.82;;;7.30;;
25073;SDS011;13066;52.042;5.648;2022-11-27T22:24:10;19.30;;;7.95;;
25073;SDS011;13066;52.042;5.648;2022-11-27T22:26:44;11.48;;;7.22;;
25073;SDS011;13066;52.042;5.648;2022-11-27T22:29:12;14.30;;;7.90;;
25073;SDS011;13066;52.042;5.648;2022-11-27T22:31:40;16.10;;;8.63;;
25073;SDS011;13066;52.042;5.648;2022-11-27T22:34:08;17.98;;;9.10;;
25073;SDS011;13066;52.042;5.648;2022-11-27T22:36:37;15.93;;;9.40;;
25073;SDS011;13066;52.042;5.648;2022-11-27T22:39:05;12.27;;;7.80;;
25073;SDS011;13066;52.042;5.648;2022-11-27T22:41:36;14.43;;;7.03;;
25073;SDS011;13066;52.042;5.648;2022-11-27T22:44:05;14.52;;;8.05;;
25073;SDS011;13066;52.042;5.648;2022-11-27T22:46:34;12.77;;;6.85;;
25073;SDS011;13066;52.042;5.648;2022-11-27T22:49:03;15.20;;;7.82;;
25073;SDS011;13066;52.042;5.648;2022-11-27T22:51:33;12.25;;;6.72;;
25073;SDS011;13066;52.042;5.648;2022-11-27T22:54:02;17.35;;;7.93;;
25073;SDS011;13066;52.042;5.648;2022-11-27T22:56:32;15.55;;;8.15;;
25073;SDS011;13066;52.042;5.648;2022-11-27T22:59:03;13.05;;;7.63;;
25073;SDS011;13066;52.042;5.648;2022-11-27T23:01:52;14.43;;;7.82;;
25073;SDS011;13066;52.042;5.648;2022-11-27T23:04:20;17.30;;;7.88;;
25073;SDS011;13066;52.042;5.648;2022-11-27T23:06:48;14.60;;;8.38;;
25073;SDS011;13066;52.042;5.648;2022-11-27T23:09:16;16.40;;;8.35;;
25073;SDS011;13066;52.042;5.648;2022-11-27T23:11:45;16.33;;;8.02;;
25073;SDS011;13066;52.042;5.648;2022-11-27T23:14:14;14.68;;;8.05;;
25073;SDS011;13066;52.042;5.648;2022-11-27T23:16:43;14.90;;;8.43;;
25073;SDS011;13066;52.042;5.648;2022-11-27T23:19:11;18.15;;;7.80;;
25073;SDS011;13066;52.042;5.648;2022-11-27T23:21:39;15.48;;;8.43;;
25073;SDS011;13066;52.042;5.648;2022-11-27T23:24:10;16.17;;;9.80;;
25073;SDS011;13066;52.042;5.648;2022-11-27T23:26:40;13.55;;;7.43;;
25073;SDS011;13066;52.042;5.648;2022-11-27T23:29:09;15.23;;;8.00;;
25073;SDS011;13066;52.042;5.648;2022-11-27T23:31:38;16.70;;;7.72;;
25073;SDS011;13066;52.042;5.648;2022-11-27T23:34:09;17.90;;;7.65;;
25073;SDS011;13066;52.042;5.648;2022-11-27T23:36:38;13.50;;;7.13;;
25073;SDS011;13066;52.042;5.648;2022-11-27T23:39:06;13.13;;;7.22;;
25073;SDS011;13066;52.042;5.648;2022-11-27T23:41:37;13.57;;;7.38;;
25073;SDS011;13066;52.042;5.648;2022-11-27T23:44:05;18.13;;;7.70;;
25073;SDS011;13066;52.042;5.648;2022-11-27T23:46:33;14.98;;;7.22;;
25073;SDS011;13066;52.042;5.648;2022-11-27T23:49:03;14.95;;;8.07;;
25073;SDS011;13066;52.042;5.648;2022-11-27T23:51:31;13.70;;;7.25;;
25073;SDS011;13066;52.042;5.648;2022-11-27T23:53:59;14.52;;;7.72;;
25073;SDS011;13066;52.042;5.648;2022-11-27T23:56:28;14.15;;;7.88;;
25073;SDS011;13066;52.042;5.648;2022-11-27T23:58:58;14.02;;;7.38;;
